createdAt,value
2024-04-11T00:02:00.034Z,7.47
2024-04-11T00:04:30.023Z,7.44
2024-04-11T00:07:00.508Z,7.42
2024-04-11T00:09:30.593Z,7.41
2024-04-11T00:12:00.177Z,7.39
2024-04-11T00:14:31.385Z,7.36
2024-04-11T00:17:01.732Z,7.33
2024-04-11T00:19:31.427Z,7.31
2024-04-11T00:22:01.102Z,7.30
2024-04-11T00:24:30.728Z,7.28
2024-04-11T00:27:00.982Z,7.28
2024-04-11T00:29:30.550Z,7.27
2024-04-11T00:32:00.383Z,7.26
2024-04-11T00:34:32.951Z,7.25
2024-04-11T00:37:03.022Z,7.22
2024-04-11T00:39:32.630Z,7.20
2024-04-11T00:42:02.386Z,7.18
2024-04-11T00:44:33.741Z,7.17
2024-04-11T00:47:09.041Z,7.15
2024-04-11T00:49:39.115Z,7.13
2024-04-11T00:52:09.142Z,7.10
2024-04-11T00:54:39.124Z,7.07
2024-04-11T00:57:11.587Z,7.04
2024-04-11T00:59:41.443Z,7.01
2024-04-11T01:02:13.768Z,7.00
2024-04-11T01:04:50.210Z,6.97
2024-04-11T01:07:20.138Z,6.95
2024-04-11T01:09:51.200Z,6.92
2024-04-11T01:12:22.592Z,6.89
2024-04-11T01:14:52.248Z,6.87
2024-04-11T01:17:22.381Z,6.86
2024-04-11T01:19:52.306Z,6.83
2024-04-11T01:22:21.774Z,6.82
2024-04-11T01:24:53.841Z,6.80
2024-04-11T01:27:23.973Z,6.79
2024-04-11T01:29:56.521Z,6.77
2024-04-11T01:32:28.853Z,6.75
2024-04-11T01:35:00.246Z,6.71
2024-04-11T01:37:29.946Z,6.68
2024-04-11T01:39:59.510Z,6.65
2024-04-11T01:42:29.365Z,6.63
2024-04-11T01:44:59.085Z,6.60
2024-04-11T01:47:28.902Z,6.57
2024-04-11T01:49:58.848Z,6.56
2024-04-11T01:52:28.319Z,6.53
2024-04-11T01:55:01.024Z,6.51
2024-04-11T01:57:30.437Z,6.50
2024-04-11T01:59:59.917Z,6.48
2024-04-11T02:02:29.898Z,6.46
2024-04-11T02:05:00.743Z,6.44
2024-04-11T02:07:31.047Z,6.44
2024-04-11T02:10:00.663Z,6.41
2024-04-11T02:12:30.259Z,6.41
2024-04-11T02:15:00.177Z,6.40
2024-04-11T02:17:31.498Z,6.38
2024-04-11T02:20:01.044Z,6.36
2024-04-11T02:22:30.941Z,6.35
2024-04-11T02:25:00.430Z,6.33
2024-04-11T02:27:30.396Z,6.33
2024-04-11T02:30:00.295Z,6.32
2024-04-11T02:32:30.222Z,6.30
2024-04-11T02:35:05.980Z,6.29
2024-04-11T02:37:35.496Z,6.28
2024-04-11T02:40:08.219Z,6.28
2024-04-11T02:42:39.341Z,6.28
2024-04-11T02:45:09.449Z,6.27
2024-04-11T02:47:39.305Z,6.26
2024-04-11T02:50:10.303Z,6.25
2024-04-11T02:52:41.738Z,6.23
2024-04-11T02:55:11.755Z,6.23
2024-04-11T02:57:42.864Z,6.21
2024-04-11T03:00:17.597Z,6.18
2024-04-11T03:02:47.848Z,6.15
2024-04-11T03:05:17.840Z,6.13
2024-04-11T03:07:49.818Z,6.10
2024-04-11T03:10:19.427Z,6.07
2024-04-11T03:12:48.994Z,5.99
2024-04-11T03:15:19.744Z,5.92
2024-04-11T03:17:49.562Z,5.87
2024-04-11T03:20:19.450Z,5.82
2024-04-11T03:22:49.060Z,5.80
2024-04-11T03:25:18.613Z,5.79
2024-04-11T03:27:48.071Z,5.75
2024-04-11T03:30:17.819Z,5.72
2024-04-11T03:32:51.182Z,5.71
2024-04-11T03:35:20.654Z,5.70
2024-04-11T03:37:51.728Z,5.68
2024-04-11T03:40:21.278Z,5.65
2024-04-11T03:42:50.930Z,5.62
2024-04-11T03:45:24.277Z,5.59
2024-04-11T03:47:54.448Z,5.57
2024-04-11T03:50:24.197Z,5.56
2024-04-11T03:52:54.372Z,5.53
2024-04-11T03:55:23.997Z,5.51
2024-04-11T03:57:53.741Z,5.48
2024-04-11T04:00:25.495Z,5.45
2024-04-11T04:02:55.350Z,5.42
2024-04-11T04:05:25.462Z,5.40
2024-04-11T04:07:55.598Z,5.38
2024-04-11T04:10:27.890Z,5.34
2024-04-11T04:12:59.225Z,5.32
2024-04-11T04:15:29.693Z,5.31
2024-04-11T04:18:04.004Z,5.31
2024-04-11T04:20:33.658Z,5.32
2024-04-11T04:23:11.061Z,5.32
2024-04-11T04:25:42.045Z,5.32
2024-04-11T04:28:12.506Z,5.35
2024-04-11T04:30:45.619Z,5.38
2024-04-11T04:33:16.119Z,5.42
2024-04-11T04:35:47.801Z,5.44
2024-04-11T04:38:18.197Z,5.47
2024-04-11T04:40:48.133Z,5.51
2024-04-11T04:43:18.391Z,5.56
2024-04-11T04:45:50.676Z,5.61
2024-04-11T04:48:20.885Z,5.66
2024-04-11T04:50:51.062Z,5.73
2024-04-11T04:53:21.460Z,5.79
2024-04-11T04:55:53.022Z,5.88
2024-04-11T04:58:23.383Z,5.97
2024-04-11T05:00:53.103Z,6.06
2024-04-11T05:03:23.052Z,6.18
2024-04-11T05:05:52.783Z,6.29
2024-04-11T05:08:24.371Z,6.40
2024-04-11T05:10:57.536Z,6.54
2024-04-11T05:13:30.791Z,6.67
2024-04-11T05:16:07.160Z,6.81
2024-04-11T05:18:37.997Z,6.95
2024-04-11T05:21:09.002Z,7.09
2024-04-11T05:23:42.484Z,7.22
2024-04-11T05:26:15.588Z,7.37
2024-04-11T05:28:45.490Z,7.53
2024-04-11T05:31:17.593Z,7.70
2024-04-11T05:33:48.903Z,7.86
2024-04-11T05:36:22.393Z,8.03
2024-04-11T05:38:53.057Z,8.18
2024-04-11T05:41:23.157Z,8.34
2024-04-11T05:43:52.900Z,8.50
2024-04-11T05:46:23.710Z,8.65
2024-04-11T05:48:54.920Z,8.78
2024-04-11T05:51:24.514Z,8.90
2024-04-11T05:53:54.099Z,9.04
2024-04-11T05:56:23.850Z,9.20
2024-04-11T05:58:53.376Z,9.35
2024-04-11T06:01:26.043Z,9.52
2024-04-11T06:03:55.864Z,9.69
2024-04-11T06:06:27.314Z,9.86
2024-04-11T06:09:01.211Z,10.04
2024-04-11T06:11:31.392Z,10.22
2024-04-11T06:14:06.321Z,10.39
2024-04-11T06:16:38.210Z,10.56
2024-04-11T06:19:08.880Z,10.74
2024-04-11T06:21:45.882Z,10.90
2024-04-11T06:24:17.229Z,11.06
2024-04-11T06:26:48.730Z,11.17
2024-04-11T06:29:23.227Z,11.23
2024-04-11T06:31:54.198Z,11.30
2024-04-11T06:34:25.842Z,11.37
2024-04-11T06:36:58.682Z,11.43
2024-04-11T06:39:30.953Z,11.52
2024-04-11T06:42:03.190Z,11.60
2024-04-11T06:44:32.874Z,11.65
2024-04-11T06:47:04.187Z,11.71
2024-04-11T06:49:38.700Z,11.76
2024-04-11T06:52:15.305Z,11.79
2024-04-11T06:54:48.139Z,11.85
2024-04-11T06:57:23.439Z,11.88
2024-04-11T06:59:53.806Z,11.94
2024-04-11T07:02:26.423Z,12.04
2024-04-11T07:04:59.715Z,12.16
2024-04-11T07:07:29.295Z,12.27
2024-04-11T07:09:59.142Z,12.36
2024-04-11T07:12:29.497Z,12.50
2024-04-11T07:15:01.018Z,12.64
2024-04-11T07:17:30.826Z,12.76
2024-04-11T07:20:00.835Z,12.87
2024-04-11T07:22:34.076Z,13.00
2024-04-11T07:25:07.882Z,13.13
2024-04-11T07:27:39.628Z,13.24
2024-04-11T07:30:12.564Z,13.34
2024-04-11T07:32:42.654Z,13.44
2024-04-11T07:35:15.832Z,13.53
2024-04-11T07:37:45.641Z,13.59
2024-04-11T07:40:28.682Z,13.64
2024-04-11T07:43:06.711Z,13.69
2024-04-11T07:45:37.362Z,13.77
2024-04-11T07:48:10.860Z,13.86
2024-04-11T07:50:45.221Z,13.96
2024-04-11T07:53:16.005Z,14.02
2024-04-11T07:55:47.414Z,14.11
2024-04-11T07:58:19.039Z,14.22
2024-04-11T08:00:55.627Z,14.29
2024-04-11T08:03:25.333Z,14.32
2024-04-11T08:05:54.889Z,14.34
2024-04-11T08:08:24.234Z,14.35
2024-04-11T08:11:04.673Z,14.38
2024-04-11T08:13:38.861Z,14.42
2024-04-11T08:16:10.991Z,14.44
2024-04-11T08:18:40.344Z,14.52
2024-04-11T08:21:10.025Z,14.64
2024-04-11T08:23:43.802Z,14.74
2024-04-11T08:26:13.759Z,14.83
2024-04-11T08:28:44.312Z,14.95
2024-04-11T08:31:14.918Z,15.07
2024-04-11T08:33:44.420Z,15.17
2024-04-11T08:36:14.656Z,15.26
2024-04-11T08:38:48.401Z,15.36
2024-04-11T08:41:22.417Z,15.45
2024-04-11T08:43:52.488Z,15.51
2024-04-11T08:46:23.307Z,15.52
2024-04-11T08:49:04.862Z,15.61
2024-04-11T08:51:38.896Z,15.72
2024-04-11T08:54:10.051Z,15.82
2024-04-11T08:56:39.746Z,15.92
2024-04-11T08:59:10.519Z,16.00
2024-04-11T09:01:39.978Z,16.07
2024-04-11T09:04:09.926Z,16.18
2024-04-11T09:06:39.611Z,16.31
2024-04-11T09:09:16.915Z,16.42
2024-04-11T09:11:47.122Z,16.46
2024-04-11T09:14:17.504Z,16.47
2024-04-11T09:16:47.016Z,16.57
2024-04-11T09:19:23.561Z,16.73
2024-04-11T09:21:54.906Z,16.87
2024-04-11T09:24:25.670Z,16.92
2024-04-11T09:26:57.413Z,17.04
2024-04-11T09:29:27.571Z,17.07
2024-04-11T09:31:59.021Z,17.02
2024-04-11T09:34:31.638Z,16.91
2024-04-11T09:37:04.965Z,16.85
2024-04-11T09:39:47.536Z,16.86
2024-04-11T09:42:19.241Z,16.93
2024-04-11T09:44:50.879Z,17.02
2024-04-11T09:47:27.479Z,17.06
2024-04-11T09:50:01.001Z,17.09
2024-04-11T09:52:34.927Z,17.16
2024-04-11T09:55:06.069Z,17.27
2024-04-11T09:57:42.514Z,17.42
2024-04-11T10:00:40.164Z,17.56
2024-04-11T10:03:10.581Z,17.69
2024-04-11T10:05:46.643Z,17.85
2024-04-11T10:08:34.287Z,18.02
2024-04-11T10:11:05.005Z,18.16
2024-04-11T10:13:40.949Z,18.21
2024-04-11T10:16:22.578Z,18.27
2024-04-11T10:19:05.628Z,18.37
2024-04-11T10:21:45.419Z,18.48
2024-04-11T10:24:28.375Z,18.52
2024-04-11T10:27:10.853Z,18.45
2024-04-11T10:29:44.246Z,18.25
2024-04-11T10:32:23.504Z,18.08
2024-04-11T10:34:57.831Z,17.84
2024-04-11T10:37:30.325Z,17.63
2024-04-11T10:40:01.284Z,17.53
2024-04-11T10:42:37.688Z,17.50
2024-04-11T10:45:11.204Z,17.49
2024-04-11T10:47:42.460Z,17.35
2024-04-11T10:50:15.354Z,17.27
2024-04-11T10:52:48.124Z,17.24
2024-04-11T10:55:23.673Z,17.26
2024-04-11T10:58:09.167Z,17.40
2024-04-11T11:00:58.935Z,17.55
2024-04-11T11:03:50.405Z,17.68
2024-04-11T11:06:29.411Z,17.75
2024-04-11T11:09:13.808Z,17.83
2024-04-11T11:11:44.370Z,17.90
2024-04-11T11:14:19.559Z,17.97
2024-04-11T11:16:52.411Z,18.08
2024-04-11T11:19:23.355Z,18.16
2024-04-11T11:22:02.518Z,18.20
2024-04-11T11:24:43.842Z,18.27
2024-04-11T11:27:14.351Z,18.10
2024-04-11T11:29:50.967Z,17.91
2024-04-11T11:32:20.537Z,17.84
2024-04-11T11:34:52.000Z,17.87
2024-04-11T11:37:24.155Z,17.93
2024-04-11T11:39:56.302Z,17.88
2024-04-11T11:42:27.842Z,17.89
2024-04-11T11:45:16.982Z,17.86
2024-04-11T11:47:47.849Z,17.82
2024-04-11T11:50:23.601Z,17.85
2024-04-11T11:52:56.598Z,17.94
2024-04-11T11:55:27.699Z,18.02
2024-04-11T11:58:05.017Z,18.10
2024-04-11T12:00:50.742Z,18.11
2024-04-11T12:03:28.153Z,18.17
2024-04-11T12:06:07.120Z,18.17
2024-04-11T12:08:39.924Z,18.07
2024-04-11T12:11:16.279Z,17.98
2024-04-11T12:13:51.890Z,17.92
2024-04-11T12:16:25.043Z,17.86
2024-04-11T12:18:56.841Z,17.77
2024-04-11T12:21:28.186Z,17.74
2024-04-11T12:23:59.059Z,17.66
2024-04-11T12:26:33.667Z,17.61
2024-04-11T12:29:04.719Z,17.55
2024-04-11T12:31:39.949Z,17.48
2024-04-11T12:34:13.503Z,17.43
2024-04-11T12:36:57.492Z,17.44
2024-04-11T12:39:34.913Z,17.49
2024-04-11T12:42:08.262Z,17.54
2024-04-11T12:44:38.551Z,17.63
2024-04-11T12:47:15.142Z,17.71
2024-04-11T12:49:47.948Z,17.82
2024-04-11T12:52:23.506Z,17.94
2024-04-11T12:54:59.412Z,18.03
2024-04-11T12:57:29.811Z,18.04
2024-04-11T13:00:10.450Z,17.93
2024-04-11T13:02:41.202Z,17.86
2024-04-11T13:05:16.361Z,17.83
2024-04-11T13:07:47.202Z,17.79
2024-04-11T13:10:17.479Z,17.82
2024-04-11T13:12:53.208Z,17.83
2024-04-11T13:15:33.697Z,17.90
2024-04-11T13:18:04.163Z,17.97
2024-04-11T13:20:37.155Z,18.10
2024-04-11T13:23:21.725Z,18.14
2024-04-11T13:26:01.320Z,18.10
2024-04-11T13:28:30.912Z,18.03
2024-04-11T13:31:00.494Z,18.04
2024-04-11T13:33:32.462Z,18.07
2024-04-11T13:36:08.909Z,18.11
2024-04-11T13:38:42.792Z,18.19
2024-04-11T13:41:43.172Z,18.24
2024-04-11T13:44:17.143Z,18.23
2024-04-11T13:46:47.615Z,18.19
2024-04-11T13:49:30.829Z,18.14
2024-04-11T13:52:19.211Z,18.10
2024-04-11T13:54:50.601Z,18.05
2024-04-11T13:57:21.913Z,18.02
2024-04-11T13:59:57.529Z,18.00
2024-04-11T14:02:47.183Z,18.03
2024-04-11T14:05:30.103Z,18.08
2024-04-11T14:08:00.171Z,18.08
2024-04-11T14:10:30.115Z,18.02
2024-04-11T14:12:59.994Z,18.00
2024-04-11T14:15:31.878Z,18.01
2024-04-11T14:18:03.006Z,18.06
2024-04-11T14:20:33.459Z,18.11
2024-04-11T14:23:15.964Z,18.14
2024-04-11T14:26:06.650Z,18.13
2024-04-11T14:28:44.301Z,18.13
2024-04-11T14:31:31.262Z,18.16
2024-04-11T14:34:23.639Z,18.17
2024-04-11T14:37:24.805Z,18.17
2024-04-11T14:39:56.679Z,18.14
2024-04-11T14:42:26.304Z,18.08
2024-04-11T14:44:56.479Z,18.03
2024-04-11T14:47:27.085Z,18.05
2024-04-11T14:49:56.446Z,18.11
2024-04-11T14:52:32.158Z,18.14
2024-04-11T14:55:10.246Z,18.17
2024-04-11T14:57:41.307Z,18.22
2024-04-11T15:00:47.445Z,18.28
2024-04-11T15:03:19.808Z,18.37
2024-04-11T15:05:51.215Z,18.39
2024-04-11T15:08:23.264Z,18.35
2024-04-11T15:11:01.057Z,18.35
2024-04-11T15:13:33.365Z,18.36
2024-04-11T15:16:21.376Z,18.34
2024-04-11T15:18:51.787Z,18.27
2024-04-11T15:21:36.093Z,18.17
2024-04-11T15:24:07.481Z,18.08
2024-04-11T15:26:37.213Z,18.02
2024-04-11T15:29:18.879Z,17.97
2024-04-11T15:32:05.811Z,17.96
2024-04-11T15:34:41.960Z,17.98
2024-04-11T15:37:28.524Z,17.99
2024-04-11T15:40:01.093Z,17.97
2024-04-11T15:42:49.789Z,17.97
2024-04-11T15:45:20.307Z,18.00
2024-04-11T15:47:52.399Z,18.01
2024-04-11T15:50:30.967Z,17.98
2024-04-11T15:53:06.207Z,17.94
2024-04-11T15:55:56.791Z,17.93
2024-04-11T15:58:26.696Z,17.93
2024-04-11T16:00:56.753Z,17.90
2024-04-11T16:03:37.578Z,17.85
2024-04-11T16:06:11.045Z,17.80
2024-04-11T16:08:43.194Z,17.74
2024-04-11T16:11:14.558Z,17.70
2024-04-11T16:13:44.909Z,17.66
2024-04-11T16:16:15.763Z,17.64
2024-04-11T16:18:46.890Z,17.63
2024-04-11T16:21:16.867Z,17.62
2024-04-11T16:23:56.271Z,17.59
2024-04-11T16:26:27.748Z,17.57
2024-04-11T16:28:58.903Z,17.55
2024-04-11T16:31:28.333Z,17.53
2024-04-11T16:33:58.792Z,17.49
2024-04-11T16:36:35.970Z,17.46
2024-04-11T16:39:20.150Z,17.44
2024-04-11T16:41:51.249Z,17.40
2024-04-11T16:44:25.551Z,17.36
2024-04-11T16:46:55.479Z,17.33
2024-04-11T16:49:35.870Z,17.28
2024-04-11T16:52:10.809Z,17.26
2024-04-11T16:54:44.299Z,17.23
2024-04-11T16:57:14.904Z,17.22
2024-04-11T16:59:45.257Z,17.19
2024-04-11T17:02:22.435Z,17.17
2024-04-11T17:04:56.382Z,17.16
2024-04-11T17:07:26.956Z,17.14
2024-04-11T17:09:58.708Z,17.10
2024-04-11T17:12:31.033Z,17.05
2024-04-11T17:15:01.768Z,16.99
2024-04-11T17:17:58.667Z,16.92
2024-04-11T17:20:47.071Z,16.82
2024-04-11T17:23:21.644Z,16.72
2024-04-11T17:25:52.727Z,16.62
2024-04-11T17:28:34.936Z,16.53
2024-04-11T17:31:04.863Z,16.44
2024-04-11T17:33:44.646Z,16.34
2024-04-11T17:36:32.523Z,16.23
2024-04-11T17:39:16.557Z,16.11
2024-04-11T17:41:58.551Z,15.99
2024-04-11T17:44:46.917Z,15.87
2024-04-11T17:47:29.925Z,15.75
2024-04-11T17:50:02.785Z,15.63
2024-04-11T17:52:45.572Z,15.54
2024-04-11T17:55:25.880Z,15.43
2024-04-11T17:58:00.725Z,15.31
2024-04-11T18:00:38.041Z,15.19
2024-04-11T18:03:10.342Z,15.09
2024-04-11T18:05:41.486Z,14.98
2024-04-11T18:08:13.170Z,14.87
2024-04-11T18:10:46.460Z,14.76
2024-04-11T18:13:18.966Z,14.67
2024-04-11T18:15:51.475Z,14.57
2024-04-11T18:18:24.427Z,14.48
2024-04-11T18:20:55.755Z,14.40
2024-04-11T18:23:28.958Z,14.32
2024-04-11T18:26:00.050Z,14.23
2024-04-11T18:28:35.317Z,14.13
2024-04-11T18:31:08.099Z,14.05
2024-04-11T18:33:38.884Z,13.96
2024-04-11T18:36:15.041Z,13.87
2024-04-11T18:38:52.091Z,13.79
2024-04-11T18:41:48.700Z,13.71
2024-04-11T18:44:42.871Z,13.61
2024-04-11T18:47:40.243Z,13.53
2024-04-11T18:50:26.607Z,13.44
2024-04-11T18:53:02.134Z,13.38
2024-04-11T18:55:47.483Z,13.34
2024-04-11T18:58:18.825Z,13.28
2024-04-11T19:00:48.704Z,13.23
2024-04-11T19:03:21.277Z,13.18
2024-04-11T19:05:53.036Z,13.13
2024-04-11T19:08:36.828Z,13.08
2024-04-11T19:11:08.535Z,13.03
2024-04-11T19:13:44.773Z,12.99
2024-04-11T19:16:19.399Z,12.93
2024-04-11T19:18:54.097Z,12.88
2024-04-11T19:21:26.658Z,12.84
2024-04-11T19:24:07.764Z,12.79
2024-04-11T19:26:39.521Z,12.74
2024-04-11T19:29:23.484Z,12.70
2024-04-11T19:31:56.283Z,12.65
2024-04-11T19:34:26.506Z,12.61
2024-04-11T19:37:01.096Z,12.56
2024-04-11T19:39:32.203Z,12.52
2024-04-11T19:42:04.759Z,12.47
2024-04-11T19:44:38.237Z,12.43
2024-04-11T19:47:11.417Z,12.35
2024-04-11T19:49:56.206Z,12.26
2024-04-11T19:52:30.535Z,12.19
2024-04-11T19:55:09.752Z,12.11
2024-04-11T19:57:49.938Z,11.98
2024-04-11T20:00:33.770Z,11.88
2024-04-11T20:03:19.813Z,11.77
2024-04-11T20:05:59.301Z,11.69
2024-04-11T20:08:31.675Z,11.63
2024-04-11T20:11:04.875Z,11.59
2024-04-11T20:13:58.276Z,11.55
2024-04-11T20:16:39.341Z,11.51
2024-04-11T20:19:11.309Z,11.47
2024-04-11T20:21:49.396Z,11.44
2024-04-11T20:24:21.107Z,11.40
2024-04-11T20:26:54.590Z,11.35
2024-04-11T20:29:26.084Z,11.31
2024-04-11T20:31:57.887Z,11.28
2024-04-11T20:34:31.484Z,11.23
2024-04-11T20:37:04.401Z,11.19
2024-04-11T20:39:40.181Z,11.15
2024-04-11T20:42:13.312Z,11.10
2024-04-11T20:44:46.295Z,11.04
2024-04-11T20:47:35.789Z,10.97
2024-04-11T20:50:24.860Z,10.91
2024-04-11T20:53:13.527Z,10.86
2024-04-11T20:56:01.482Z,10.82
2024-04-11T20:59:04.276Z,10.80
2024-04-11T21:01:52.206Z,10.79
2024-04-11T21:04:40.400Z,10.77
2024-04-11T21:07:29.139Z,10.76
2024-04-11T21:10:17.237Z,10.75
2024-04-11T21:13:05.137Z,10.75
2024-04-11T21:15:58.905Z,10.75
2024-04-11T21:18:47.063Z,10.75
2024-04-11T21:21:35.588Z,10.75
2024-04-11T21:24:24.521Z,10.75
2024-04-11T21:27:12.922Z,10.75
2024-04-11T21:30:01.040Z,10.75
2024-04-11T21:32:49.322Z,10.75
2024-04-11T21:35:22.898Z,10.75
2024-04-11T21:38:02.429Z,10.74
2024-04-11T21:40:33.704Z,10.75
2024-04-11T21:43:06.524Z,10.75
2024-04-11T21:45:41.891Z,10.75
2024-04-11T21:48:11.890Z,10.76
2024-04-11T21:50:43.683Z,10.78
2024-04-11T21:53:19.796Z,10.79
2024-04-11T21:55:50.429Z,10.81
2024-04-11T21:58:21.961Z,10.83
2024-04-11T22:00:52.130Z,10.84
2024-04-11T22:03:24.614Z,10.83
2024-04-11T22:05:56.313Z,10.82
2024-04-11T22:08:31.426Z,10.81
2024-04-11T22:11:03.549Z,10.81
2024-04-11T22:13:36.991Z,10.80
2024-04-11T22:16:09.915Z,10.82
2024-04-11T22:18:41.339Z,10.82
2024-04-11T22:21:14.259Z,10.81
2024-04-11T22:23:45.339Z,10.81
2024-04-11T22:26:18.612Z,10.80
2024-04-11T22:28:48.513Z,10.81
2024-04-11T22:31:18.308Z,10.79
2024-04-11T22:33:50.859Z,10.79
2024-04-11T22:36:29.040Z,10.78
2024-04-11T22:39:01.729Z,10.77
2024-04-11T22:41:39.948Z,10.77
2024-04-11T22:44:10.425Z,10.78
2024-04-11T22:46:40.278Z,10.79
2024-04-11T22:49:15.864Z,10.81
2024-04-11T22:51:46.425Z,10.83
2024-04-11T22:54:20.658Z,10.85
2024-04-11T22:56:51.893Z,10.88
2024-04-11T22:59:25.071Z,10.90
2024-04-11T23:02:13.700Z,10.93
2024-04-11T23:04:49.907Z,10.96
2024-04-11T23:07:39.343Z,10.99
2024-04-11T23:10:20.934Z,11.01
2024-04-11T23:12:52.627Z,11.03
2024-04-11T23:15:24.412Z,11.08
2024-04-11T23:18:08.328Z,11.10
2024-04-11T23:20:43.731Z,11.13
2024-04-11T23:23:19.255Z,11.15
2024-04-11T23:25:50.918Z,11.18
2024-04-11T23:28:22.547Z,11.19
2024-04-11T23:30:53.948Z,11.21
2024-04-11T23:33:24.662Z,11.22
2024-04-11T23:36:05.088Z,11.21
2024-04-11T23:38:37.572Z,11.21
2024-04-11T23:41:10.692Z,11.23
2024-04-11T23:43:48.761Z,11.26
2024-04-11T23:46:28.094Z,11.30
2024-04-11T23:49:05.686Z,11.31
2024-04-11T23:51:45.243Z,11.30
2024-04-11T23:54:18.832Z,11.31
2024-04-11T23:56:59.252Z,11.32
2024-04-11T23:59:37.430Z,11.34
